sensor_id;sensor_type;location;lat;lon;timestamp;P1;durP1;ratioP1;P2;durP2;ratioP2
35306;SDS011;21420;52.196;21.416;2023-05-07T00:02:00;5.50;;;3.30;;
35306;SDS011;21420;52.196;21.416;2023-05-07T00:04:27;4.60;;;3.10;;
35306;SDS011;21420;52.196;21.416;2023-05-07T00:06:55;4.40;;;3.50;;
35306;SDS011;21420;52.196;21.416;2023-05-07T00:09:22;5.00;;;3.90;;
35306;SDS011;21420;52.196;21.416;2023-05-07T00:11:48;4.10;;;3.70;;
35306;SDS011;21420;52.196;21.416;2023-05-07T00:14:15;7.20;;;4.00;;
35306;SDS011;21420;52.196;21.416;2023-05-07T00:16:41;5.20;;;3.40;;
35306;SDS011;21420;52.196;21.416;2023-05-07T00:19:08;8.30;;;3.50;;
35306;SDS011;21420;52.196;21.416;2023-05-07T00:21:35;4.90;;;3.00;;
35306;SDS011;21420;52.196;21.416;2023-05-07T00:24:01;5.00;;;3.20;;
35306;SDS011;21420;52.196;21.416;2023-05-07T00:26:28;4.80;;;3.30;;
35306;SDS011;21420;52.196;21.416;2023-05-07T00:28:55;6.30;;;3.60;;
35306;SDS011;21420;52.196;21.416;2023-05-07T00:31:21;4.40;;;3.50;;
35306;SDS011;21420;52.196;21.416;2023-05-07T00:33:48;4.30;;;3.10;;
35306;SDS011;21420;52.196;21.416;2023-05-07T00:36:15;5.10;;;3.30;;
35306;SDS011;21420;52.196;21.416;2023-05-07T00:38:41;7.80;;;3.20;;
35306;SDS011;21420;52.196;21.416;2023-05-07T00:41:08;4.80;;;3.40;;
35306;SDS011;21420;52.196;21.416;2023-05-07T00:43:35;6.60;;;3.60;;
35306;SDS011;21420;52.196;21.416;2023-05-07T00:46:01;3.10;;;2.80;;
35306;SDS011;21420;52.196;21.416;2023-05-07T00:48:28;4.60;;;3.20;;
35306;SDS011;21420;52.196;21.416;2023-05-07T00:50:55;6.30;;;3.00;;
35306;SDS011;21420;52.196;21.416;2023-05-07T00:53:23;6.20;;;3.70;;
35306;SDS011;21420;52.196;21.416;2023-05-07T00:55:50;3.60;;;3.20;;
35306;SDS011;21420;52.196;21.416;2023-05-07T00:58:17;5.60;;;3.40;;
35306;SDS011;21420;52.196;21.416;2023-05-07T01:00:44;4.80;;;3.00;;
35306;SDS011;21420;52.196;21.416;2023-05-07T01:03:10;4.70;;;3.40;;
35306;SDS011;21420;52.196;21.416;2023-05-07T01:05:37;3.40;;;3.10;;
35306;SDS011;21420;52.196;21.416;2023-05-07T01:08:05;4.20;;;3.00;;
35306;SDS011;21420;52.196;21.416;2023-05-07T01:10:32;4.30;;;3.40;;
35306;SDS011;21420;52.196;21.416;2023-05-07T01:12:59;3.50;;;3.10;;
35306;SDS011;21420;52.196;21.416;2023-05-07T01:15:26;5.80;;;3.30;;
35306;SDS011;21420;52.196;21.416;2023-05-07T01:17:54;6.20;;;3.70;;
35306;SDS011;21420;52.196;21.416;2023-05-07T01:20:27;4.60;;;3.50;;
35306;SDS011;21420;52.196;21.416;2023-05-07T01:22:54;4.10;;;3.30;;
35306;SDS011;21420;52.196;21.416;2023-05-07T01:25:23;6.20;;;3.40;;
35306;SDS011;21420;52.196;21.416;2023-05-07T01:27:52;5.10;;;3.20;;
35306;SDS011;21420;52.196;21.416;2023-05-07T01:30:20;3.30;;;2.90;;
35306;SDS011;21420;52.196;21.416;2023-05-07T01:32:50;4.20;;;3.10;;
35306;SDS011;21420;52.196;21.416;2023-05-07T01:35:21;5.60;;;3.40;;
35306;SDS011;21420;52.196;21.416;2023-05-07T01:37:51;7.70;;;3.20;;
35306;SDS011;21420;52.196;21.416;2023-05-07T01:40:18;4.70;;;2.70;;
35306;SDS011;21420;52.196;21.416;2023-05-07T01:42:45;4.30;;;3.30;;
35306;SDS011;21420;52.196;21.416;2023-05-07T01:45:12;3.20;;;2.60;;
35306;SDS011;21420;52.196;21.416;2023-05-07T01:47:39;4.90;;;3.00;;
35306;SDS011;21420;52.196;21.416;2023-05-07T01:50:06;4.10;;;3.00;;
35306;SDS011;21420;52.196;21.416;2023-05-07T01:52:38;5.30;;;3.20;;
35306;SDS011;21420;52.196;21.416;2023-05-07T01:57:32;3.40;;;3.10;;
35306;SDS011;21420;52.196;21.416;2023-05-07T01:59:59;3.40;;;3.10;;
35306;SDS011;21420;52.196;21.416;2023-05-07T02:02:25;4.40;;;3.20;;
35306;SDS011;21420;52.196;21.416;2023-05-07T02:04:53;3.50;;;3.10;;
35306;SDS011;21420;52.196;21.416;2023-05-07T02:07:21;3.50;;;3.00;;
35306;SDS011;21420;52.196;21.416;2023-05-07T02:09:48;3.60;;;3.00;;
35306;SDS011;21420;52.196;21.416;2023-05-07T02:12:15;3.70;;;2.60;;
35306;SDS011;21420;52.196;21.416;2023-05-07T02:14:41;3.30;;;2.90;;
35306;SDS011;21420;52.196;21.416;2023-05-07T02:17:14;3.20;;;2.80;;
35306;SDS011;21420;52.196;21.416;2023-05-07T02:19:41;4.50;;;3.00;;
35306;SDS011;21420;52.196;21.416;2023-05-07T02:22:09;3.50;;;2.70;;
35306;SDS011;21420;52.196;21.416;2023-05-07T02:24:36;4.00;;;3.00;;
35306;SDS011;21420;52.196;21.416;2023-05-07T02:27:04;3.70;;;2.60;;
35306;SDS011;21420;52.196;21.416;2023-05-07T02:29:32;3.10;;;2.70;;
35306;SDS011;21420;52.196;21.416;2023-05-07T02:31:58;2.70;;;2.40;;
35306;SDS011;21420;52.196;21.416;2023-05-07T02:34:25;2.70;;;2.30;;
35306;SDS011;21420;52.196;21.416;2023-05-07T02:36:52;3.70;;;2.80;;
35306;SDS011;21420;52.196;21.416;2023-05-07T02:39:21;3.10;;;2.30;;
35306;SDS011;21420;52.196;21.416;2023-05-07T02:41:48;3.40;;;2.50;;
35306;SDS011;21420;52.196;21.416;2023-05-07T02:44:14;4.30;;;2.50;;
35306;SDS011;21420;52.196;21.416;2023-05-07T02:46:42;4.60;;;3.00;;
35306;SDS011;21420;52.196;21.416;2023-05-07T02:49:10;6.20;;;2.70;;
35306;SDS011;21420;52.196;21.416;2023-05-07T02:51:36;2.60;;;2.20;;
35306;SDS011;21420;52.196;21.416;2023-05-07T02:54:07;3.80;;;2.40;;
35306;SDS011;21420;52.196;21.416;2023-05-07T02:56:33;4.00;;;2.40;;
35306;SDS011;21420;52.196;21.416;2023-05-07T02:59:00;2.60;;;2.10;;
35306;SDS011;21420;52.196;21.416;2023-05-07T03:01:29;2.90;;;2.20;;
35306;SDS011;21420;52.196;21.416;2023-05-07T03:04:04;2.60;;;2.30;;
35306;SDS011;21420;52.196;21.416;2023-05-07T03:06:31;3.00;;;2.40;;
35306;SDS011;21420;52.196;21.416;2023-05-07T03:08:58;3.50;;;2.60;;
35306;SDS011;21420;52.196;21.416;2023-05-07T03:11:24;3.60;;;2.60;;
35306;SDS011;21420;52.196;21.416;2023-05-07T03:13:51;3.10;;;1.90;;
35306;SDS011;21420;52.196;21.416;2023-05-07T03:16:18;2.80;;;2.50;;
35306;SDS011;21420;52.196;21.416;2023-05-07T03:18:45;3.50;;;2.20;;
35306;SDS011;21420;52.196;21.416;2023-05-07T03:21:12;4.20;;;2.30;;
35306;SDS011;21420;52.196;21.416;2023-05-07T03:23:38;2.50;;;2.30;;
35306;SDS011;21420;52.196;21.416;2023-05-07T03:26:05;3.60;;;2.60;;
35306;SDS011;21420;52.196;21.416;2023-05-07T03:28:31;3.40;;;2.20;;
35306;SDS011;21420;52.196;21.416;2023-05-07T03:31:00;2.80;;;2.20;;
35306;SDS011;21420;52.196;21.416;2023-05-07T03:33:28;5.60;;;2.50;;
35306;SDS011;21420;52.196;21.416;2023-05-07T03:35:54;2.50;;;2.30;;
35306;SDS011;21420;52.196;21.416;2023-05-07T03:38:22;4.50;;;2.50;;
35306;SDS011;21420;52.196;21.416;2023-05-07T03:40:49;5.00;;;2.20;;
35306;SDS011;21420;52.196;21.416;2023-05-07T03:43:16;2.60;;;2.30;;
35306;SDS011;21420;52.196;21.416;2023-05-07T03:45:46;3.10;;;2.20;;
35306;SDS011;21420;52.196;21.416;2023-05-07T03:48:17;4.00;;;2.20;;
35306;SDS011;21420;52.196;21.416;2023-05-07T03:50:44;3.50;;;2.10;;
35306;SDS011;21420;52.196;21.416;2023-05-07T03:53:11;3.50;;;2.30;;
35306;SDS011;21420;52.196;21.416;2023-05-07T03:55:38;3.00;;;2.30;;
35306;SDS011;21420;52.196;21.416;2023-05-07T03:58:05;3.60;;;2.10;;
35306;SDS011;21420;52.196;21.416;2023-05-07T04:00:31;3.10;;;2.20;;
35306;SDS011;21420;52.196;21.416;2023-05-07T04:03:06;3.60;;;2.10;;
35306;SDS011;21420;52.196;21.416;2023-05-07T04:05:33;3.20;;;2.10;;
35306;SDS011;21420;52.196;21.416;2023-05-07T04:08:00;2.70;;;2.10;;
35306;SDS011;21420;52.196;21.416;2023-05-07T04:10:36;2.30;;;1.80;;
35306;SDS011;21420;52.196;21.416;2023-05-07T04:13:06;3.80;;;2.50;;
35306;SDS011;21420;52.196;21.416;2023-05-07T04:15:33;3.40;;;1.90;;
35306;SDS011;21420;52.196;21.416;2023-05-07T04:18:00;2.60;;;2.30;;
35306;SDS011;21420;52.196;21.416;2023-05-07T04:20:26;2.40;;;2.10;;
35306;SDS011;21420;52.196;21.416;2023-05-07T04:22:58;2.70;;;2.10;;
35306;SDS011;21420;52.196;21.416;2023-05-07T04:25:24;2.60;;;1.90;;
35306;SDS011;21420;52.196;21.416;2023-05-07T04:27:56;2.50;;;2.10;;
35306;SDS011;21420;52.196;21.416;2023-05-07T04:30:24;2.50;;;2.00;;
35306;SDS011;21420;52.196;21.416;2023-05-07T04:32:51;2.70;;;2.20;;
35306;SDS011;21420;52.196;21.416;2023-05-07T04:35:19;2.00;;;1.90;;
35306;SDS011;21420;52.196;21.416;2023-05-07T04:37:45;2.20;;;2.00;;
35306;SDS011;21420;52.196;21.416;2023-05-07T04:40:12;4.20;;;2.10;;
35306;SDS011;21420;52.196;21.416;2023-05-07T04:42:40;2.70;;;2.00;;
35306;SDS011;21420;52.196;21.416;2023-05-07T04:45:06;3.00;;;2.10;;
35306;SDS011;21420;52.196;21.416;2023-05-07T04:47:35;2.60;;;2.00;;
35306;SDS011;21420;52.196;21.416;2023-05-07T04:50:03;5.60;;;1.50;;
35306;SDS011;21420;52.196;21.416;2023-05-07T04:52:29;1.90;;;1.70;;
35306;SDS011;21420;52.196;21.416;2023-05-07T04:55:01;2.60;;;2.10;;
35306;SDS011;21420;52.196;21.416;2023-05-07T04:57:29;3.90;;;1.80;;
35306;SDS011;21420;52.196;21.416;2023-05-07T04:59:56;2.60;;;1.80;;
35306;SDS011;21420;52.196;21.416;2023-05-07T05:02:24;2.10;;;1.90;;
35306;SDS011;21420;52.196;21.416;2023-05-07T05:04:51;2.20;;;1.70;;
35306;SDS011;21420;52.196;21.416;2023-05-07T05:07:18;1.90;;;1.70;;
35306;SDS011;21420;52.196;21.416;2023-05-07T05:09:45;1.80;;;1.60;;
35306;SDS011;21420;52.196;21.416;2023-05-07T05:12:11;3.00;;;1.80;;
35306;SDS011;21420;52.196;21.416;2023-05-07T05:14:38;4.10;;;1.90;;
35306;SDS011;21420;52.196;21.416;2023-05-07T05:17:12;2.00;;;1.60;;
35306;SDS011;21420;52.196;21.416;2023-05-07T05:19:38;1.80;;;1.60;;
35306;SDS011;21420;52.196;21.416;2023-05-07T05:22:05;3.30;;;1.80;;
35306;SDS011;21420;52.196;21.416;2023-05-07T05:24:32;3.20;;;1.80;;
35306;SDS011;21420;52.196;21.416;2023-05-07T05:27:00;2.10;;;1.50;;
35306;SDS011;21420;52.196;21.416;2023-05-07T05:29:28;2.50;;;1.80;;
35306;SDS011;21420;52.196;21.416;2023-05-07T05:31:54;2.40;;;1.80;;
35306;SDS011;21420;52.196;21.416;2023-05-07T05:34:22;1.50;;;1.40;;
35306;SDS011;21420;52.196;21.416;2023-05-07T05:36:49;2.30;;;1.70;;
35306;SDS011;21420;52.196;21.416;2023-05-07T05:39:16;1.70;;;1.40;;
35306;SDS011;21420;52.196;21.416;2023-05-07T05:41:43;1.80;;;1.60;;
35306;SDS011;21420;52.196;21.416;2023-05-07T05:44:12;2.00;;;1.90;;
35306;SDS011;21420;52.196;21.416;2023-05-07T05:46:41;2.10;;;1.90;;
35306;SDS011;21420;52.196;21.416;2023-05-07T05:49:08;2.30;;;1.80;;
35306;SDS011;21420;52.196;21.416;2023-05-07T05:51:35;2.70;;;1.80;;
35306;SDS011;21420;52.196;21.416;2023-05-07T05:54:02;2.80;;;1.80;;
35306;SDS011;21420;52.196;21.416;2023-05-07T05:56:30;2.70;;;1.80;;
35306;SDS011;21420;52.196;21.416;2023-05-07T05:58:57;2.30;;;2.10;;
35306;SDS011;21420;52.196;21.416;2023-05-07T06:01:24;2.50;;;2.10;;
35306;SDS011;21420;52.196;21.416;2023-05-07T06:03:50;3.30;;;2.50;;
35306;SDS011;21420;52.196;21.416;2023-05-07T06:06:18;3.40;;;2.90;;
35306;SDS011;21420;52.196;21.416;2023-05-07T06:08:45;3.90;;;2.90;;
35306;SDS011;21420;52.196;21.416;2023-05-07T06:11:15;3.50;;;2.50;;
35306;SDS011;21420;52.196;21.416;2023-05-07T06:13:43;2.10;;;1.90;;
35306;SDS011;21420;52.196;21.416;2023-05-07T06:16:10;3.70;;;2.40;;
35306;SDS011;21420;52.196;21.416;2023-05-07T06:18:37;3.00;;;2.00;;
35306;SDS011;21420;52.196;21.416;2023-05-07T06:21:04;4.20;;;2.50;;
35306;SDS011;21420;52.196;21.416;2023-05-07T06:23:31;4.50;;;2.00;;
35306;SDS011;21420;52.196;21.416;2023-05-07T06:25:58;2.60;;;2.20;;
35306;SDS011;21420;52.196;21.416;2023-05-07T06:28:28;2.80;;;1.60;;
35306;SDS011;21420;52.196;21.416;2023-05-07T06:31:10;3.30;;;2.30;;
35306;SDS011;21420;52.196;21.416;2023-05-07T06:33:38;2.20;;;1.60;;
35306;SDS011;21420;52.196;21.416;2023-05-07T06:36:06;2.90;;;2.10;;
35306;SDS011;21420;52.196;21.416;2023-05-07T06:38:33;3.50;;;2.00;;
35306;SDS011;21420;52.196;21.416;2023-05-07T06:41:00;2.70;;;1.70;;
35306;SDS011;21420;52.196;21.416;2023-05-07T06:43:27;2.30;;;2.00;;
35306;SDS011;21420;52.196;21.416;2023-05-07T06:46:01;3.20;;;2.00;;
35306;SDS011;21420;52.196;21.416;2023-05-07T06:48:28;1.90;;;1.70;;
35306;SDS011;21420;52.196;21.416;2023-05-07T06:50:59;2.00;;;1.80;;
35306;SDS011;21420;52.196;21.416;2023-05-07T06:53:26;5.00;;;1.70;;
35306;SDS011;21420;52.196;21.416;2023-05-07T06:55:53;5.30;;;1.90;;
35306;SDS011;21420;52.196;21.416;2023-05-07T06:58:20;2.70;;;2.30;;
35306;SDS011;21420;52.196;21.416;2023-05-07T07:00:47;2.80;;;1.70;;
35306;SDS011;21420;52.196;21.416;2023-05-07T07:03:13;2.70;;;2.30;;
35306;SDS011;21420;52.196;21.416;2023-05-07T07:05:41;5.40;;;4.60;;
35306;SDS011;21420;52.196;21.416;2023-05-07T07:08:08;5.50;;;2.90;;
35306;SDS011;21420;52.196;21.416;2023-05-07T07:10:35;3.30;;;1.90;;
35306;SDS011;21420;52.196;21.416;2023-05-07T07:13:02;2.10;;;1.90;;
35306;SDS011;21420;52.196;21.416;2023-05-07T07:15:29;5.00;;;2.20;;
35306;SDS011;21420;52.196;21.416;2023-05-07T07:17:56;2.10;;;1.90;;
35306;SDS011;21420;52.196;21.416;2023-05-07T07:20:23;2.80;;;2.20;;
35306;SDS011;21420;52.196;21.416;2023-05-07T07:22:50;3.50;;;2.20;;
35306;SDS011;21420;52.196;21.416;2023-05-07T07:25:16;4.60;;;2.60;;
35306;SDS011;21420;52.196;21.416;2023-05-07T07:27:44;3.20;;;2.50;;
35306;SDS011;21420;52.196;21.416;2023-05-07T07:30:11;4.30;;;3.00;;
35306;SDS011;21420;52.196;21.416;2023-05-07T07:32:39;2.60;;;1.80;;
35306;SDS011;21420;52.196;21.416;2023-05-07T07:35:06;2.10;;;1.90;;
35306;SDS011;21420;52.196;21.416;2023-05-07T07:37:34;3.70;;;2.00;;
35306;SDS011;21420;52.196;21.416;2023-05-07T07:40:01;3.30;;;3.00;;
35306;SDS011;21420;52.196;21.416;2023-05-07T07:42:28;4.30;;;1.90;;
35306;SDS011;21420;52.196;21.416;2023-05-07T07:44:56;2.90;;;2.10;;
35306;SDS011;21420;52.196;21.416;2023-05-07T07:47:24;4.40;;;2.20;;
35306;SDS011;21420;52.196;21.416;2023-05-07T07:49:51;2.40;;;2.20;;
35306;SDS011;21420;52.196;21.416;2023-05-07T07:52:18;3.70;;;2.20;;
35306;SDS011;21420;52.196;21.416;2023-05-07T07:54:45;4.50;;;2.10;;
35306;SDS011;21420;52.196;21.416;2023-05-07T07:57:12;3.40;;;1.80;;
35306;SDS011;21420;52.196;21.416;2023-05-07T07:59:39;3.60;;;2.30;;
35306;SDS011;21420;52.196;21.416;2023-05-07T08:02:06;5.60;;;2.20;;
35306;SDS011;21420;52.196;21.416;2023-05-07T08:04:33;2.70;;;1.80;;
35306;SDS011;21420;52.196;21.416;2023-05-07T08:07:02;4.70;;;2.20;;
35306;SDS011;21420;52.196;21.416;2023-05-07T08:09:31;3.40;;;2.30;;
35306;SDS011;21420;52.196;21.416;2023-05-07T08:11:58;3.60;;;2.20;;
35306;SDS011;21420;52.196;21.416;2023-05-07T08:14:25;2.70;;;2.00;;
35306;SDS011;21420;52.196;21.416;2023-05-07T08:16:52;2.80;;;2.00;;
35306;SDS011;21420;52.196;21.416;2023-05-07T08:19:19;2.80;;;1.70;;
35306;SDS011;21420;52.196;21.416;2023-05-07T08:21:46;2.90;;;2.40;;
35306;SDS011;21420;52.196;21.416;2023-05-07T08:24:15;6.80;;;3.80;;
35306;SDS011;21420;52.196;21.416;2023-05-07T08:26:41;3.30;;;2.70;;
35306;SDS011;21420;52.196;21.416;2023-05-07T08:29:09;4.30;;;3.50;;
35306;SDS011;21420;52.196;21.416;2023-05-07T08:31:35;2.90;;;2.00;;
35306;SDS011;21420;52.196;21.416;2023-05-07T08:34:03;3.80;;;2.00;;
35306;SDS011;21420;52.196;21.416;2023-05-07T08:36:29;3.40;;;2.20;;
35306;SDS011;21420;52.196;21.416;2023-05-07T08:38:56;2.50;;;2.30;;
35306;SDS011;21420;52.196;21.416;2023-05-07T08:41:23;3.10;;;2.10;;
35306;SDS011;21420;52.196;21.416;2023-05-07T08:43:50;2.40;;;2.00;;
35306;SDS011;21420;52.196;21.416;2023-05-07T08:46:19;2.50;;;1.90;;
35306;SDS011;21420;52.196;21.416;2023-05-07T08:48:48;3.80;;;2.20;;
35306;SDS011;21420;52.196;21.416;2023-05-07T08:51:16;3.30;;;2.20;;
35306;SDS011;21420;52.196;21.416;2023-05-07T08:53:47;3.30;;;2.10;;
35306;SDS011;21420;52.196;21.416;2023-05-07T08:56:17;3.40;;;2.20;;
35306;SDS011;21420;52.196;21.416;2023-05-07T08:58:48;4.30;;;1.90;;
35306;SDS011;21420;52.196;21.416;2023-05-07T09:01:16;2.80;;;1.80;;
35306;SDS011;21420;52.196;21.416;2023-05-07T09:03:45;2.70;;;2.20;;
35306;SDS011;21420;52.196;21.416;2023-05-07T09:06:13;5.40;;;1.90;;
35306;SDS011;21420;52.196;21.416;2023-05-07T09:08:40;2.70;;;1.90;;
35306;SDS011;21420;52.196;21.416;2023-05-07T09:11:07;5.10;;;2.40;;
35306;SDS011;21420;52.196;21.416;2023-05-07T09:13:35;3.00;;;2.00;;
35306;SDS011;21420;52.196;21.416;2023-05-07T09:16:11;3.50;;;2.50;;
35306;SDS011;21420;52.196;21.416;2023-05-07T09:18:43;2.60;;;2.40;;
35306;SDS011;21420;52.196;21.416;2023-05-07T09:21:14;4.20;;;2.40;;
35306;SDS011;21420;52.196;21.416;2023-05-07T09:23:42;2.70;;;2.30;;
35306;SDS011;21420;52.196;21.416;2023-05-07T09:26:09;4.50;;;2.10;;
35306;SDS011;21420;52.196;21.416;2023-05-07T09:28:39;3.50;;;1.90;;
35306;SDS011;21420;52.196;21.416;2023-05-07T09:31:10;3.20;;;2.20;;
35306;SDS011;21420;52.196;21.416;2023-05-07T09:33:38;3.40;;;1.80;;
35306;SDS011;21420;52.196;21.416;2023-05-07T09:36:07;2.40;;;2.10;;
35306;SDS011;21420;52.196;21.416;2023-05-07T09:38:37;3.30;;;2.00;;
35306;SDS011;21420;52.196;21.416;2023-05-07T09:41:05;3.90;;;2.30;;
35306;SDS011;21420;52.196;21.416;2023-05-07T09:43:40;3.10;;;2.00;;
35306;SDS011;21420;52.196;21.416;2023-05-07T09:46:09;4.40;;;2.70;;
35306;SDS011;21420;52.196;21.416;2023-05-07T09:48:40;2.70;;;1.90;;
35306;SDS011;21420;52.196;21.416;2023-05-07T09:51:21;3.40;;;2.00;;
35306;SDS011;21420;52.196;21.416;2023-05-07T09:53:53;5.50;;;2.10;;
35306;SDS011;21420;52.196;21.416;2023-05-07T09:56:20;3.30;;;2.20;;
35306;SDS011;21420;52.196;21.416;2023-05-07T09:58:48;3.90;;;2.30;;
35306;SDS011;21420;52.196;21.416;2023-05-07T10:01:18;2.80;;;2.00;;
35306;SDS011;21420;52.196;21.416;2023-05-07T10:03:49;15.30;;;2.50;;
35306;SDS011;21420;52.196;21.416;2023-05-07T10:06:18;3.20;;;2.30;;
35306;SDS011;21420;52.196;21.416;2023-05-07T10:08:46;4.10;;;2.30;;
35306;SDS011;21420;52.196;21.416;2023-05-07T10:11:13;4.20;;;2.60;;
35306;SDS011;21420;52.196;21.416;2023-05-07T10:13:43;4.70;;;2.50;;
35306;SDS011;21420;52.196;21.416;2023-05-07T10:16:10;2.60;;;2.20;;
35306;SDS011;21420;52.196;21.416;2023-05-07T10:18:43;3.70;;;2.00;;
35306;SDS011;21420;52.196;21.416;2023-05-07T10:21:20;2.80;;;2.40;;
35306;SDS011;21420;52.196;21.416;2023-05-07T10:23:53;2.50;;;2.20;;
35306;SDS011;21420;52.196;21.416;2023-05-07T10:26:27;3.30;;;2.10;;
35306;SDS011;21420;52.196;21.416;2023-05-07T10:28:58;3.50;;;2.00;;
35306;SDS011;21420;52.196;21.416;2023-05-07T10:31:39;3.10;;;2.00;;
35306;SDS011;21420;52.196;21.416;2023-05-07T10:34:20;3.90;;;2.30;;
35306;SDS011;21420;52.196;21.416;2023-05-07T10:36:49;3.00;;;2.60;;
35306;SDS011;21420;52.196;21.416;2023-05-07T10:39:19;5.20;;;2.60;;
35306;SDS011;21420;52.196;21.416;2023-05-07T10:41:47;2.70;;;1.60;;
35306;SDS011;21420;52.196;21.416;2023-05-07T10:44:27;2.50;;;2.00;;
35306;SDS011;21420;52.196;21.416;2023-05-07T10:47:18;2.60;;;1.80;;
35306;SDS011;21420;52.196;21.416;2023-05-07T10:52:24;3.50;;;2.00;;
35306;SDS011;21420;52.196;21.416;2023-05-07T10:55:19;4.30;;;3.00;;
35306;SDS011;21420;52.196;21.416;2023-05-07T11:01:35;4.60;;;3.10;;
35306;SDS011;21420;52.196;21.416;2023-05-07T11:04:18;2.80;;;1.80;;
35306;SDS011;21420;52.196;21.416;2023-05-07T11:15:09;3.60;;;2.70;;
35306;SDS011;21420;52.196;21.416;2023-05-07T11:17:54;4.50;;;4.10;;
35306;SDS011;21420;52.196;21.416;2023-05-07T11:26:12;4.70;;;2.50;;
35306;SDS011;21420;52.196;21.416;2023-05-07T11:28:40;3.90;;;2.90;;
35306;SDS011;21420;52.196;21.416;2023-05-07T11:31:09;4.80;;;2.50;;
35306;SDS011;21420;52.196;21.416;2023-05-07T11:33:37;5.30;;;2.70;;
35306;SDS011;21420;52.196;21.416;2023-05-07T11:38:39;2.50;;;2.20;;
35306;SDS011;21420;52.196;21.416;2023-05-07T11:41:05;3.00;;;2.10;;
35306;SDS011;21420;52.196;21.416;2023-05-07T11:43:33;5.10;;;2.90;;
35306;SDS011;21420;52.196;21.416;2023-05-07T11:46:08;5.80;;;2.70;;
35306;SDS011;21420;52.196;21.416;2023-05-07T11:48:37;6.60;;;2.90;;
35306;SDS011;21420;52.196;21.416;2023-05-07T11:51:05;4.00;;;2.30;;
35306;SDS011;21420;52.196;21.416;2023-05-07T11:53:39;2.50;;;2.10;;
35306;SDS011;21420;52.196;21.416;2023-05-07T11:56:07;3.40;;;2.10;;
35306;SDS011;21420;52.196;21.416;2023-05-07T11:58:35;4.90;;;3.00;;
35306;SDS011;21420;52.196;21.416;2023-05-07T12:01:01;3.50;;;2.70;;
35306;SDS011;21420;52.196;21.416;2023-05-07T12:03:28;3.60;;;2.50;;
35306;SDS011;21420;52.196;21.416;2023-05-07T12:06:01;4.40;;;2.60;;
35306;SDS011;21420;52.196;21.416;2023-05-07T12:08:27;6.60;;;3.40;;
35306;SDS011;21420;52.196;21.416;2023-05-07T12:10:54;4.50;;;2.40;;
35306;SDS011;21420;52.196;21.416;2023-05-07T12:13:21;1.90;;;1.50;;
35306;SDS011;21420;52.196;21.416;2023-05-07T12:15:50;2.00;;;1.60;;
35306;SDS011;21420;52.196;21.416;2023-05-07T12:18:18;6.00;;;1.70;;
35306;SDS011;21420;52.196;21.416;2023-05-07T12:20:46;3.50;;;1.80;;
35306;SDS011;21420;52.196;21.416;2023-05-07T12:23:14;3.30;;;1.70;;
35306;SDS011;21420;52.196;21.416;2023-05-07T12:25:41;2.70;;;1.90;;
35306;SDS011;21420;52.196;21.416;2023-05-07T12:28:16;3.10;;;1.70;;
35306;SDS011;21420;52.196;21.416;2023-05-07T12:30:45;2.90;;;2.10;;
35306;SDS011;21420;52.196;21.416;2023-05-07T12:33:17;3.00;;;1.80;;
35306;SDS011;21420;52.196;21.416;2023-05-07T12:35:45;4.10;;;1.70;;
35306;SDS011;21420;52.196;21.416;2023-05-07T12:38:14;2.20;;;2.00;;
35306;SDS011;21420;52.196;21.416;2023-05-07T12:43:21;2.50;;;2.00;;
35306;SDS011;21420;52.196;21.416;2023-05-07T12:45:51;3.70;;;2.20;;
35306;SDS011;21420;52.196;21.416;2023-05-07T12:48:21;7.20;;;2.30;;
35306;SDS011;21420;52.196;21.416;2023-05-07T12:50:59;4.20;;;1.70;;
35306;SDS011;21420;52.196;21.416;2023-05-07T12:53:28;1.90;;;1.50;;
35306;SDS011;21420;52.196;21.416;2023-05-07T12:55:56;1.70;;;1.60;;
35306;SDS011;21420;52.196;21.416;2023-05-07T12:58:29;3.90;;;1.70;;
35306;SDS011;21420;52.196;21.416;2023-05-07T13:00:59;3.30;;;1.90;;
35306;SDS011;21420;52.196;21.416;2023-05-07T13:03:29;2.20;;;1.80;;
35306;SDS011;21420;52.196;21.416;2023-05-07T13:06:19;2.30;;;1.40;;
35306;SDS011;21420;52.196;21.416;2023-05-07T13:08:44;2.70;;;1.50;;
35306;SDS011;21420;52.196;21.416;2023-05-07T13:11:11;3.10;;;1.30;;
35306;SDS011;21420;52.196;21.416;2023-05-07T13:13:39;1.90;;;1.30;;
35306;SDS011;21420;52.196;21.416;2023-05-07T13:16:08;4.30;;;2.00;;
35306;SDS011;21420;52.196;21.416;2023-05-07T13:18:37;6.00;;;5.10;;
35306;SDS011;21420;52.196;21.416;2023-05-07T13:21:06;2.60;;;2.00;;
35306;SDS011;21420;52.196;21.416;2023-05-07T13:23:33;1.70;;;1.60;;
35306;SDS011;21420;52.196;21.416;2023-05-07T13:26:00;1.70;;;1.50;;
35306;SDS011;21420;52.196;21.416;2023-05-07T13:31:06;2.70;;;2.40;;
35306;SDS011;21420;52.196;21.416;2023-05-07T13:33:33;4.80;;;2.50;;
35306;SDS011;21420;52.196;21.416;2023-05-07T13:36:00;3.10;;;1.90;;
35306;SDS011;21420;52.196;21.416;2023-05-07T13:38:27;3.70;;;1.80;;
35306;SDS011;21420;52.196;21.416;2023-05-07T13:40:53;1.50;;;1.30;;
35306;SDS011;21420;52.196;21.416;2023-05-07T13:43:20;1.80;;;1.40;;
35306;SDS011;21420;52.196;21.416;2023-05-07T13:45:47;4.40;;;2.30;;
35306;SDS011;21420;52.196;21.416;2023-05-07T13:48:13;12.40;;;4.70;;
35306;SDS011;21420;52.196;21.416;2023-05-07T13:50:40;3.50;;;1.90;;
35306;SDS011;21420;52.196;21.416;2023-05-07T13:53:07;2.30;;;1.60;;
35306;SDS011;21420;52.196;21.416;2023-05-07T13:55:34;2.20;;;1.60;;
35306;SDS011;21420;52.196;21.416;2023-05-07T13:58:01;2.50;;;1.30;;
35306;SDS011;21420;52.196;21.416;2023-05-07T14:00:32;2.40;;;1.50;;
35306;SDS011;21420;52.196;21.416;2023-05-07T14:02:59;1.70;;;1.30;;
35306;SDS011;21420;52.196;21.416;2023-05-07T14:05:26;2.20;;;1.70;;
35306;SDS011;21420;52.196;21.416;2023-05-07T14:07:56;2.40;;;1.70;;
35306;SDS011;21420;52.196;21.416;2023-05-07T14:10:24;3.70;;;1.40;;
35306;SDS011;21420;52.196;21.416;2023-05-07T14:12:51;1.70;;;1.50;;
35306;SDS011;21420;52.196;21.416;2023-05-07T14:15:19;1.10;;;1.00;;
35306;SDS011;21420;52.196;21.416;2023-05-07T14:17:45;2.70;;;1.40;;
35306;SDS011;21420;52.196;21.416;2023-05-07T14:20:13;5.60;;;1.50;;
35306;SDS011;21420;52.196;21.416;2023-05-07T14:22:40;1.70;;;1.20;;
35306;SDS011;21420;52.196;21.416;2023-05-07T14:25:08;2.60;;;1.50;;
35306;SDS011;21420;52.196;21.416;2023-05-07T14:27:36;3.70;;;1.60;;
35306;SDS011;21420;52.196;21.416;2023-05-07T14:30:03;5.80;;;1.60;;
35306;SDS011;21420;52.196;21.416;2023-05-07T14:32:30;2.20;;;1.70;;
35306;SDS011;21420;52.196;21.416;2023-05-07T14:34:56;2.70;;;1.50;;
35306;SDS011;21420;52.196;21.416;2023-05-07T14:37:23;4.20;;;2.30;;
35306;SDS011;21420;52.196;21.416;2023-05-07T14:39:50;2.10;;;1.60;;
35306;SDS011;21420;52.196;21.416;2023-05-07T14:42:17;2.80;;;1.50;;
35306;SDS011;21420;52.196;21.416;2023-05-07T14:44:44;4.00;;;1.90;;
35306;SDS011;21420;52.196;21.416;2023-05-07T14:47:12;2.80;;;2.40;;
35306;SDS011;21420;52.196;21.416;2023-05-07T14:49:39;1.70;;;1.40;;
35306;SDS011;21420;52.196;21.416;2023-05-07T14:52:07;2.40;;;1.60;;
35306;SDS011;21420;52.196;21.416;2023-05-07T14:54:36;3.50;;;1.80;;
35306;SDS011;21420;52.196;21.416;2023-05-07T14:57:05;2.20;;;1.80;;
35306;SDS011;21420;52.196;21.416;2023-05-07T14:59:32;9.90;;;2.70;;
35306;SDS011;21420;52.196;21.416;2023-05-07T15:01:59;2.90;;;1.70;;
35306;SDS011;21420;52.196;21.416;2023-05-07T15:04:29;3.40;;;1.60;;
35306;SDS011;21420;52.196;21.416;2023-05-07T15:06:55;2.50;;;1.80;;
35306;SDS011;21420;52.196;21.416;2023-05-07T15:09:22;4.70;;;1.70;;
35306;SDS011;21420;52.196;21.416;2023-05-07T15:11:49;6.30;;;1.80;;